createdAt,value
2015-10-27T00:00:02.544Z,57.48
2015-10-27T00:00:14.919Z,57.29
2015-10-27T00:00:26.576Z,57.57
2015-10-27T00:00:38.907Z,57.67
2015-10-27T00:00:51.266Z,57.48
2015-10-27T00:01:03.594Z,57.57
2015-10-27T00:01:15.922Z,57.76
2015-10-27T00:01:28.251Z,57.57
2015-10-27T00:01:40.582Z,57.48
2015-10-27T00:01:52.925Z,57.39
2015-10-27T00:02:04.550Z,57.48
2015-10-27T00:02:16.910Z,57.57
2015-10-27T00:02:29.269Z,57.86
2015-10-27T00:02:41.600Z,57.39
2015-10-27T00:02:53.928Z,57.2
2015-10-27T00:03:06.257Z,57.48
2015-10-27T00:03:18.569Z,57.39
2015-10-27T00:03:30.897Z,57.39
2015-10-27T00:03:43.226Z,57.1
2015-10-27T00:03:55.570Z,57.39
2015-10-27T00:04:07.914Z,57.29
2015-10-27T00:04:20.258Z,57.01
2015-10-27T00:04:32.617Z,57.1
2015-10-27T00:04:44.979Z,57.2
2015-10-27T00:04:57.323Z,57.29
2015-10-27T00:05:09.636Z,57.39
2015-10-27T00:05:21.964Z,56.91
2015-10-27T00:05:34.292Z,56.82
2015-10-27T00:05:46.639Z,57.1
2015-10-27T00:05:58.967Z,57.29
2015-10-27T00:06:11.295Z,57.39
2015-10-27T00:06:23.639Z,57.29
2015-10-27T00:06:35.998Z,57.2
2015-10-27T00:06:48.360Z,56.91
2015-10-27T00:07:00.720Z,56.91
2015-10-27T00:07:13.095Z,57.2
2015-10-27T00:07:25.423Z,57.2
2015-10-27T00:07:37.831Z,57.2
2015-10-27T00:07:49.440Z,57.1
2015-10-27T00:08:01.815Z,57.39
2015-10-27T00:08:14.144Z,57.57
2015-10-27T00:08:26.487Z,57.48
2015-10-27T00:08:38.834Z,57.86
2015-10-27T00:08:50.475Z,57.57
2015-10-27T00:09:02.818Z,57.29
2015-10-27T00:09:15.178Z,57.76
2015-10-27T00:09:27.522Z,57.67
2015-10-27T00:09:39.837Z,57.57
2015-10-27T00:09:52.165Z,57.57
2015-10-27T00:10:04.493Z,57.57
2015-10-27T00:10:16.837Z,57.67
2015-10-27T00:10:29.165Z,58.05
2015-10-27T00:10:41.496Z,57.86
2015-10-27T00:10:53.840Z,57.76
2015-10-27T00:11:06.199Z,57.95
2015-10-27T00:11:18.559Z,57.95
2015-10-27T00:11:30.887Z,57.86
2015-10-27T00:11:43.201Z,57.86
2015-10-27T00:11:55.514Z,57.86
2015-10-27T00:12:07.686Z,57.76
2015-10-27T00:12:20.014Z,57.95
2015-10-27T00:12:32.342Z,57.86
2015-10-27T00:12:44.704Z,57.67
2015-10-27T00:12:57.033Z,58.05
2015-10-27T00:13:09.345Z,57.95
2015-10-27T00:13:21.689Z,58.33
2015-10-27T00:13:34.017Z,58.14
2015-10-27T00:13:46.347Z,58.43
2015-10-27T00:13:58.691Z,58.14
2015-10-27T00:14:11.035Z,58.24
2015-10-27T00:14:23.378Z,58.33
2015-10-27T00:14:35.753Z,58.14
2015-10-27T00:14:48.100Z,58.43
2015-10-27T00:15:00.428Z,58.33
2015-10-27T00:15:12.756Z,58.33
2015-10-27T00:15:25.084Z,58.14
2015-10-27T00:15:37.256Z,58.24
2015-10-27T00:15:49.587Z,58.24
2015-10-27T00:16:01.916Z,58.24
2015-10-27T00:16:14.259Z,58.14
2015-10-27T00:16:26.603Z,58.24
2015-10-27T00:16:38.981Z,58.33
2015-10-27T00:16:51.340Z,58.05
2015-10-27T00:17:03.715Z,58.24
2015-10-27T00:17:16.044Z,58.24
2015-10-27T00:17:27.653Z,57.86
2015-10-27T00:17:39.983Z,58.24
2015-10-27T00:17:52.311Z,57.86
2015-10-27T00:18:04.639Z,57.86
2015-10-27T00:18:17.061Z,57.86
2015-10-27T00:18:29.280Z,57.95
2015-10-27T00:18:41.642Z,57.95
2015-10-27T00:18:54.002Z,58.24
2015-10-27T00:19:06.361Z,58.24
2015-10-27T00:19:18.752Z,57.76
2015-10-27T00:19:31.064Z,57.95
2015-10-27T00:19:43.411Z,58.24
2015-10-27T00:19:55.742Z,57.95
2015-10-27T00:20:08.101Z,58.05
2015-10-27T00:20:20.476Z,58.05
2015-10-27T00:20:32.820Z,57.76
2015-10-27T00:20:45.150Z,57.67
2015-10-27T00:20:57.478Z,57.76
2015-10-27T00:21:10.088Z,57.86
2015-10-27T00:21:22.432Z,58.05
2015-10-27T00:21:34.775Z,57.95
2015-10-27T00:21:47.138Z,57.67
2015-10-27T00:21:59.481Z,57.48
2015-10-27T00:22:11.794Z,57.67
2015-10-27T00:22:24.122Z,57.67
2015-10-27T00:22:36.450Z,57.48
2015-10-27T00:22:48.781Z,57.48
2015-10-27T00:23:01.109Z,57.2
2015-10-27T00:23:13.453Z,57.39
2015-10-27T00:23:25.797Z,57.48
2015-10-27T00:23:38.174Z,57.2
2015-10-27T00:23:50.533Z,57.01
2015-10-27T00:24:02.205Z,57.29
2015-10-27T00:24:14.549Z,57.2
2015-10-27T00:24:26.877Z,57.29
2015-10-27T00:24:39.208Z,57.29
2015-10-27T00:24:51.552Z,57.29
2015-10-27T00:25:03.927Z,57.29
2015-10-27T00:25:16.114Z,56.82
2015-10-27T00:25:28.458Z,57.29
2015-10-27T00:25:40.789Z,57.1
2015-10-27T00:25:53.149Z,57.29
2015-10-27T00:26:05.492Z,56.72
2015-10-27T00:26:17.836Z,56.91
2015-10-27T00:26:30.164Z,56.82
2015-10-27T00:26:42.527Z,56.82
2015-10-27T00:26:54.886Z,56.82
2015-10-27T00:27:07.261Z,56.91
2015-10-27T00:27:19.605Z,57.01
2015-10-27T00:27:31.933Z,57.2
2015-10-27T00:27:44.263Z,57.29
2015-10-27T00:27:56.622Z,57.2
2015-10-27T00:28:08.951Z,56.91
2015-10-27T00:28:21.294Z,57.29
2015-10-27T00:28:33.622Z,57.2
2015-10-27T00:28:45.829Z,57.2
2015-10-27T00:28:58.188Z,56.82
2015-10-27T00:29:10.563Z,56.72
2015-10-27T00:29:22.891Z,56.82
2015-10-27T00:29:35.219Z,56.63
2015-10-27T00:29:47.550Z,56.53
2015-10-27T00:29:59.894Z,56.25
2015-10-27T00:30:12.253Z,56.15
2015-10-27T00:30:24.628Z,56.25
2015-10-27T00:30:36.957Z,56.25
2015-10-27T00:30:49.288Z,55.96
2015-10-27T00:31:01.631Z,56.15
2015-10-27T00:31:13.991Z,55.77
2015-10-27T00:31:26.350Z,55.49
2015-10-27T00:31:38.055Z,55.3
2015-10-27T00:31:50.383Z,55.11
2015-10-27T00:32:02.727Z,54.74
2015-10-27T00:32:15.055Z,55.02
2015-10-27T00:32:26.680Z,54.83
2015-10-27T00:32:39.011Z,54.64
2015-10-27T00:32:51.340Z,54.55
2015-10-27T00:33:03.683Z,54.55
2015-10-27T00:33:16.043Z,54.64
2015-10-27T00:33:28.402Z,54.64
2015-10-27T00:33:40.593Z,54.35
2015-10-27T00:33:52.905Z,54.16
2015-10-27T00:34:05.264Z,54.16
2015-10-27T00:34:16.905Z,54.07
2015-10-27T00:34:29.264Z,54.26
2015-10-27T00:34:41.595Z,53.78
2015-10-27T00:34:53.923Z,53.97
2015-10-27T00:35:06.266Z,54.07
2015-10-27T00:35:18.610Z,53.78
2015-10-27T00:35:30.985Z,53.72
2015-10-27T00:35:43.347Z,53.44
2015-10-27T00:35:55.706Z,53.59
2015-10-27T00:36:08.050Z,53.53
2015-10-27T00:36:20.425Z,53.34
2015-10-27T00:36:32.800Z,53.72
2015-10-27T00:36:45.115Z,53.72
2015-10-27T00:36:57.303Z,53.72
2015-10-27T00:37:09.631Z,53.53
2015-10-27T00:37:21.959Z,53.34
2015-10-27T00:37:34.287Z,53.53
2015-10-27T00:37:46.634Z,53.44
2015-10-27T00:37:58.978Z,53.34
2015-10-27T00:38:11.337Z,53.34
2015-10-27T00:38:23.696Z,53.44
2015-10-27T00:38:36.024Z,53.53
2015-10-27T00:38:47.512Z,53.53
2015-10-27T00:38:59.856Z,53.59
2015-10-27T00:39:12.199Z,53.5
2015-10-27T00:39:24.559Z,53.53
2015-10-27T00:39:36.902Z,53.53
2015-10-27T00:39:49.234Z,53.25
2015-10-27T00:40:01.562Z,53.25
2015-10-27T00:40:13.890Z,52.94
2015-10-27T00:40:26.218Z,53.03
2015-10-27T00:40:38.549Z,53.15
2015-10-27T00:40:50.893Z,53.34
2015-10-27T00:41:03.221Z,53.13
2015-10-27T00:41:15.580Z,52.87
2015-10-27T00:41:27.940Z,52.46
2015-10-27T00:41:40.317Z,52.56
2015-10-27T00:41:52.645Z,52.75
2015-10-27T00:42:04.973Z,52.48
2015-10-27T00:42:17.301Z,52.75
2015-10-27T00:42:29.629Z,52.65
2015-10-27T00:42:41.960Z,52.65
2015-10-27T00:42:54.288Z,52.65
2015-10-27T00:43:06.632Z,52.75
2015-10-27T00:43:18.976Z,52.56
2015-10-27T00:43:31.320Z,52.68
2015-10-27T00:43:43.698Z,52.87
2015-10-27T00:43:56.026Z,52.84
2015-10-27T00:44:08.354Z,52.84
2015-10-27T00:44:20.682Z,52.75
2015-10-27T00:44:33.010Z,52.65
2015-10-27T00:44:45.357Z,52.56
2015-10-27T00:44:57.685Z,52.27
2015-10-27T00:45:10.029Z,52.27
2015-10-27T00:45:22.373Z,52.18
2015-10-27T00:45:34.748Z,52.18
2015-10-27T00:45:47.124Z,52.08
2015-10-27T00:45:59.452Z,51.7
2015-10-27T00:46:11.780Z,51.7
2015-10-27T00:46:24.124Z,52.08
2015-10-27T00:46:36.452Z,51.99
2015-10-27T00:46:48.814Z,52.08
2015-10-27T00:47:01.142Z,51.61
2015-10-27T00:47:13.314Z,51.51
2015-10-27T00:47:25.642Z,51.89
2015-10-27T00:47:37.986Z,51.99
2015-10-27T00:47:50.333Z,51.73
2015-10-27T00:48:01.942Z,51.51
2015-10-27T00:48:14.270Z,52.08
2015-10-27T00:48:26.598Z,51.64
2015-10-27T00:48:38.929Z,52.29
2015-10-27T00:48:51.242Z,52.08
2015-10-27T00:49:03.586Z,51.99
2015-10-27T00:49:15.929Z,52.29
2015-10-27T00:49:28.289Z,51.99
2015-10-27T00:49:40.635Z,52.27
2015-10-27T00:49:52.963Z,52.27
2015-10-27T00:50:05.291Z,52.2
2015-10-27T00:50:17.619Z,52.18
2015-10-27T00:50:29.963Z,52.18
2015-10-27T00:50:42.294Z,52.08
2015-10-27T00:50:54.638Z,52.11
2015-10-27T00:51:06.997Z,52.08
2015-10-27T00:51:19.356Z,52.18
2015-10-27T00:51:31.716Z,52.27
2015-10-27T00:51:44.078Z,52.18
2015-10-27T00:51:56.406Z,52.08
2015-10-27T00:52:08.750Z,52.39
2015-10-27T00:52:21.078Z,52.18
2015-10-27T00:52:33.406Z,52.29
2015-10-27T00:52:45.737Z,52.46
2015-10-27T00:52:57.362Z,52.48
2015-10-27T00:53:09.690Z,52.46
2015-10-27T00:53:22.050Z,52.46
2015-10-27T00:53:33.690Z,52.56
2015-10-27T00:53:46.021Z,52.56
2015-10-27T00:53:58.364Z,52.58
2015-10-27T00:54:10.708Z,52.58
2015-10-27T00:54:23.052Z,52.56
2015-10-27T00:54:35.427Z,52.58
2015-10-27T00:54:47.789Z,52.68
2015-10-27T00:55:00.117Z,52.58
2015-10-27T00:55:12.445Z,52.39
2015-10-27T00:55:24.774Z,52.37
2015-10-27T00:55:37.117Z,52.27
2015-10-27T00:55:49.433Z,52.2
2015-10-27T00:56:01.761Z,51.99
2015-10-27T00:56:14.120Z,52.18
2015-10-27T00:56:26.448Z,52.01
2015-10-27T00:56:38.811Z,51.61
2015-10-27T00:56:51.186Z,51.89
2015-10-27T00:57:03.373Z,51.99
2015-10-27T00:57:15.701Z,51.82
2015-10-27T00:57:28.030Z,51.51
2015-10-27T00:57:40.360Z,51.8
2015-10-27T00:57:52.688Z,51.99
2015-10-27T00:58:05.016Z,51.54
2015-10-27T00:58:17.344Z,51.8
2015-10-27T00:58:29.672Z,51.54
2015-10-27T00:58:42.003Z,51.54
2015-10-27T00:58:54.331Z,51.61
2015-10-27T00:59:06.675Z,51.73
2015-10-27T00:59:19.003Z,51.26
2015-10-27T00:59:31.347Z,51.51
2015-10-27T00:59:43.678Z,51.35
2015-10-27T00:59:56.038Z,51.16
2015-10-27T01:00:08.459Z,50.97
2015-10-27T01:00:20.788Z,50.97
2015-10-27T01:00:33.116Z,50.95
2015-10-27T01:00:45.447Z,50.97
2015-10-27T01:00:57.775Z,51.14
2015-10-27T01:01:10.119Z,50.78
2015-10-27T01:01:22.447Z,50.85
2015-10-27T01:01:34.775Z,50.95
2015-10-27T01:01:47.135Z,50.97
2015-10-27T01:01:59.479Z,50.85
2015-10-27T01:02:11.838Z,51.14
2015-10-27T01:02:24.182Z,51.14
2015-10-27T01:02:36.526Z,50.49
2015-10-27T01:02:48.857Z,50.49
2015-10-27T01:03:01.185Z,50.57
2015-10-27T01:03:13.513Z,50.95
2015-10-27T01:03:25.841Z,50.88
2015-10-27T01:03:38.185Z,51.07
2015-10-27T01:03:50.532Z,51.04
2015-10-27T01:04:02.891Z,50.85
2015-10-27T01:04:15.251Z,50.85
2015-10-27T01:04:27.469Z,50.85
2015-10-27T01:04:39.816Z,51.04
2015-10-27T01:04:52.144Z,50.85
2015-10-27T01:05:04.457Z,50.57
2015-10-27T01:05:16.769Z,50.66
2015-10-27T01:05:29.113Z,50.47
2015-10-27T01:05:41.444Z,50.28
2015-10-27T01:05:53.819Z,50.38
2015-10-27T01:06:06.147Z,50.38
2015-10-27T01:06:18.460Z,50.57
2015-10-27T01:06:30.788Z,50.38
2015-10-27T01:06:43.118Z,50.4
2015-10-27T01:06:55.446Z,50.47
2015-10-27T01:07:07.056Z,50.47
2015-10-27T01:07:19.415Z,50.09
2015-10-27T01:07:31.759Z,50.19
2015-10-27T01:07:43.402Z,50
2015-10-27T01:07:55.762Z,50.09
2015-10-27T01:08:08.121Z,50.12
2015-10-27T01:08:20.449Z,50.09
2015-10-27T01:08:32.777Z,50.21
2015-10-27T01:08:45.108Z,50.02
2015-10-27T01:08:57.437Z,50.09
2015-10-27T01:09:09.765Z,50.09
2015-10-27T01:09:21.952Z,50.09
2015-10-27T01:09:34.312Z,50
2015-10-27T01:09:46.674Z,50.19
2015-10-27T01:09:59.033Z,50.12
2015-10-27T01:10:11.361Z,50.4
2015-10-27T01:10:23.690Z,50.09
2015-10-27T01:10:36.018Z,50.09
2015-10-27T01:10:48.363Z,50.4
2015-10-27T01:11:00.707Z,50.19
2015-10-27T01:11:13.051Z,50.09
2015-10-27T01:11:25.395Z,50.19
2015-10-27T01:11:37.723Z,50.4
2015-10-27T01:11:50.054Z,50.38
2015-10-27T01:12:02.382Z,50.21
2015-10-27T01:12:14.710Z,50.09
2015-10-27T01:12:27.038Z,50.12
2015-10-27T01:12:39.368Z,50.12
2015-10-27T01:12:51.728Z,50.21
2015-10-27T01:13:04.072Z,50.4
2015-10-27T01:13:16.447Z,50.57
2015-10-27T01:13:28.790Z,50.76
2015-10-27T01:13:41.121Z,50.4
2015-10-27T01:13:53.450Z,50.47
2015-10-27T01:14:05.793Z,50.49
2015-10-27T01:14:18.137Z,50.38
2015-10-27T01:14:30.356Z,50.47
2015-10-27T01:14:42.545Z,50.76
2015-10-27T01:14:54.873Z,50.66
2015-10-27T01:15:07.202Z,50.66
2015-10-27T01:15:18.811Z,50.59
2015-10-27T01:15:31.139Z,50.66
2015-10-27T01:15:43.470Z,50.49
2015-10-27T01:15:55.814Z,50.57
2015-10-27T01:16:08.173Z,50.69
2015-10-27T01:16:20.517Z,50.57
2015-10-27T01:16:32.876Z,50.38
2015-10-27T01:16:45.239Z,50.47
2015-10-27T01:16:57.583Z,50.59
2015-10-27T01:17:09.911Z,50.85
2015-10-27T01:17:22.239Z,50.88
2015-10-27T01:17:34.583Z,50.85
2015-10-27T01:17:46.929Z,50.57
2015-10-27T01:17:59.257Z,51.04
2015-10-27T01:18:11.601Z,50.95
2015-10-27T01:18:23.961Z,50.97
2015-10-27T01:18:36.320Z,51.23
2015-10-27T01:18:48.650Z,50.76
2015-10-27T01:19:00.994Z,50.85
2015-10-27T01:19:13.322Z,51.04
2015-10-27T01:19:25.666Z,51.04
2015-10-27T01:19:38.009Z,51.16
2015-10-27T01:19:50.372Z,51.23
2015-10-27T01:20:02.747Z,51.23
2015-10-27T01:20:15.122Z,51.42
2015-10-27T01:20:27.450Z,51.42
2015-10-27T01:20:39.797Z,51.42
2015-10-27T01:20:52.140Z,51.7
2015-10-27T01:21:04.469Z,51.61
2015-10-27T01:21:16.797Z,51.42
2015-10-27T01:21:29.140Z,51.8
2015-10-27T01:21:41.472Z,51.51
2015-10-27T01:21:53.081Z,51.61
2015-10-27T01:22:05.393Z,51.8
2015-10-27T01:22:17.706Z,51.51
2015-10-27T01:22:30.034Z,51.61
2015-10-27T01:22:42.364Z,51.51
2015-10-27T01:22:54.692Z,51.61
2015-10-27T01:23:08.536Z,52.37
2015-10-27T01:23:20.708Z,52.18
2015-10-27T01:23:33.036Z,52.27
2015-10-27T01:23:45.367Z,52.27
2015-10-27T01:23:57.695Z,51.99
2015-10-27T01:24:10.023Z,52.27
2015-10-27T01:24:22.367Z,52.18
2015-10-27T01:24:34.742Z,52.37
2015-10-27T01:24:47.105Z,52.08
2015-10-27T01:24:59.480Z,51.89
2015-10-27T01:25:11.808Z,51.89
2015-10-27T01:25:24.151Z,52.18
2015-10-27T01:25:36.495Z,51.99
2015-10-27T01:25:48.858Z,52.27
2015-10-27T01:26:01.217Z,52.27
2015-10-27T01:26:13.561Z,52.18
2015-10-27T01:26:25.889Z,52.46
2015-10-27T01:26:38.217Z,52.46
2015-10-27T01:26:50.547Z,52.46
2015-10-27T01:27:02.875Z,52.56
2015-10-27T01:27:15.203Z,52.56
2015-10-27T01:27:27.547Z,52.56
2015-10-27T01:27:39.878Z,52.56
2015-10-27T01:27:52.253Z,52.56
2015-10-27T01:28:04.597Z,52.56
2015-10-27T01:28:16.925Z,52.37
2015-10-27T01:28:29.113Z,52.18
2015-10-27T01:28:41.458Z,52.37
2015-10-27T01:28:53.802Z,52.37
2015-10-27T01:29:06.161Z,52.37
2015-10-27T01:29:18.505Z,52.18
2015-10-27T01:29:30.677Z,52.37
2015-10-27T01:29:43.008Z,52.37
2015-10-27T01:29:55.352Z,52.27
2015-10-27T01:30:07.680Z,52.37
2015-10-27T01:30:20.008Z,52.27
2015-10-27T01:30:32.352Z,52.27
2015-10-27T01:30:44.698Z,52.27
2015-10-27T01:30:57.057Z,52.18
2015-10-27T01:31:09.416Z,52.18
2015-10-27T01:31:21.760Z,52.27
2015-10-27T01:31:34.073Z,52.18
2015-10-27T01:31:46.404Z,52.18
2015-10-27T01:31:58.732Z,52.18
2015-10-27T01:32:11.060Z,52.18
2015-10-27T01:32:23.404Z,52.27
2015-10-27T01:32:35.763Z,52.27
2015-10-27T01:32:48.094Z,52.27
2015-10-27T01:33:00.454Z,52.27
2015-10-27T01:33:12.813Z,52.27
2015-10-27T01:33:25.141Z,52.18
2015-10-27T01:33:37.469Z,52.08
2015-10-27T01:33:49.800Z,52.37
2015-10-27T01:34:02.144Z,51.99
2015-10-27T01:34:14.457Z,51.7
2015-10-27T01:34:26.785Z,51.61
2015-10-27T01:34:39.144Z,51.7
2015-10-27T01:34:51.474Z,52.18
2015-10-27T01:35:03.834Z,51.89
2015-10-27T01:35:16.193Z,51.8
2015-10-27T01:35:28.537Z,51.8
2015-10-27T01:35:40.868Z,51.51
2015-10-27T01:35:53.196Z,51.61
2015-10-27T01:36:05.524Z,51.51
2015-10-27T01:36:18.118Z,51.7
2015-10-27T01:36:30.446Z,51.32
2015-10-27T01:36:42.777Z,51.7
2015-10-27T01:36:55.105Z,51.61
2015-10-27T01:37:07.480Z,51.42
2015-10-27T01:37:19.824Z,51.23
2015-10-27T01:37:32.199Z,51.32
2015-10-27T01:37:44.546Z,51.51
2015-10-27T01:37:56.874Z,51.42
2015-10-27T01:38:09.218Z,51.51
2015-10-27T01:38:21.546Z,51.23
2015-10-27T01:38:33.718Z,51.42
2015-10-27T01:38:46.048Z,51.14
2015-10-27T01:38:58.392Z,51.14
2015-10-27T01:39:10.735Z,50.85
2015-10-27T01:39:23.095Z,50.76
2015-10-27T01:39:35.454Z,50.95
2015-10-27T01:39:47.098Z,50.95
2015-10-27T01:39:59.441Z,50.76
2015-10-27T01:40:11.051Z,50.85
2015-10-27T01:40:23.660Z,51.32
2015-10-27T01:40:35.988Z,51.23
2015-10-27T01:40:48.303Z,51.42
2015-10-27T01:41:00.631Z,51.42
2015-10-27T01:41:12.990Z,51.61
2015-10-27T01:41:25.334Z,51.61
2015-10-27T01:41:37.678Z,51.8
2015-10-27T01:41:50.040Z,51.51
2015-10-27T01:42:02.446Z,51.61
2015-10-27T01:42:14.775Z,51.51
2015-10-27T01:42:27.103Z,51.51
2015-10-27T01:42:39.431Z,51.51
2015-10-27T01:42:51.778Z,51.61
2015-10-27T01:43:04.137Z,51.7
2015-10-27T01:43:16.481Z,51.32
2015-10-27T01:43:28.824Z,51.61
2015-10-27T01:43:41.187Z,51.42
2015-10-27T01:43:53.531Z,51.51
2015-10-27T01:44:05.859Z,51.42
2015-10-27T01:44:18.187Z,51.32
2015-10-27T01:44:30.515Z,51.32
2015-10-27T01:44:42.845Z,51.61
2015-10-27T01:44:55.158Z,51.51
2015-10-27T01:45:07.501Z,51.61
2015-10-27T01:45:19.845Z,51.51
2015-10-27T01:45:32.204Z,51.42
2015-10-27T01:45:44.567Z,51.61
2015-10-27T01:45:56.942Z,51.51
2015-10-27T01:46:09.286Z,51.61
2015-10-27T01:46:21.614Z,51.51
2015-10-27T01:46:33.957Z,51.8
2015-10-27T01:46:46.132Z,51.7
2015-10-27T01:46:58.445Z,51.61
2015-10-27T01:47:10.773Z,51.51
2015-10-27T01:47:23.117Z,51.8
2015-10-27T01:47:35.460Z,51.8
2015-10-27T01:47:47.823Z,51.8
2015-10-27T01:48:00.198Z,51.7
2015-10-27T01:48:12.526Z,51.7
2015-10-27T01:48:24.854Z,51.8
2015-10-27T01:48:37.182Z,51.7
2015-10-27T01:48:49.528Z,51.61
2015-10-27T01:49:01.872Z,51.8
2015-10-27T01:49:14.215Z,51.89
2015-10-27T01:49:26.575Z,51.89
2015-10-27T01:49:38.934Z,51.99
2015-10-27T01:49:51.281Z,51.42
2015-10-27T01:50:03.609Z,51.7
2015-10-27T01:50:15.937Z,51.99
2015-10-27T01:50:28.265Z,52.08
2015-10-27T01:50:39.875Z,52.08
2015-10-27T01:50:52.206Z,51.99
2015-10-27T01:51:04.534Z,51.61
2015-10-27T01:51:16.893Z,51.51
2015-10-27T01:51:29.253Z,51.89
2015-10-27T01:51:41.615Z,51.7
2015-10-27T01:51:53.974Z,51.89
2015-10-27T01:52:06.318Z,51.7
2015-10-27T01:52:18.646Z,51.61
2015-10-27T01:52:30.974Z,51.7
2015-10-27T01:52:43.289Z,51.89
2015-10-27T01:52:55.633Z,51.8
2015-10-27T01:53:07.961Z,51.89
2015-10-27T01:53:20.305Z,51.42
2015-10-27T01:53:32.648Z,51.61
2015-10-27T01:53:44.995Z,51.51
2015-10-27T01:53:57.354Z,51.42
2015-10-27T01:54:09.698Z,51.32
2015-10-27T01:54:22.026Z,51.51
2015-10-27T01:54:34.354Z,51.42
2015-10-27T01:54:46.686Z,51.42
2015-10-27T01:54:59.029Z,51.51
2015-10-27T01:55:11.357Z,51.51
2015-10-27T01:55:23.686Z,51.61
2015-10-27T01:55:36.029Z,51.51
2015-10-27T01:55:48.391Z,51.51
2015-10-27T01:56:00.734Z,51.8
2015-10-27T01:56:13.078Z,51.8
2015-10-27T01:56:25.391Z,51.89
2015-10-27T01:56:37.703Z,51.99
2015-10-27T01:56:50.018Z,51.8
2015-10-27T01:57:02.330Z,51.99
2015-10-27T01:57:14.658Z,52.18
2015-10-27T01:57:26.986Z,52.08
2015-10-27T01:57:39.361Z,51.7
2015-10-27T01:57:51.693Z,51.61
2015-10-27T01:58:04.021Z,52.08
2015-10-27T01:58:16.380Z,52.27
2015-10-27T01:58:28.693Z,51.61
2015-10-27T01:58:41.024Z,52.08
2015-10-27T01:58:53.352Z,51.89
2015-10-27T01:59:05.727Z,51.89
2015-10-27T01:59:18.055Z,51.8
2015-10-27T01:59:30.430Z,51.7
2015-10-27T01:59:42.792Z,51.51
2015-10-27T01:59:55.105Z,51.51
2015-10-27T02:00:07.449Z,51.51
2015-10-27T02:00:19.777Z,51.51
2015-10-27T02:00:32.120Z,51.8
2015-10-27T02:00:44.466Z,51.42
2015-10-27T02:00:56.794Z,51.51
2015-10-27T02:01:09.122Z,51.61
2015-10-27T02:01:21.482Z,51.42
2015-10-27T02:01:33.826Z,51.14
2015-10-27T02:01:46.188Z,51.23
2015-10-27T02:01:58.532Z,51.42
2015-10-27T02:02:10.860Z,51.23
2015-10-27T02:02:23.188Z,51.42
2015-10-27T02:02:35.516Z,51.23
2015-10-27T02:02:47.847Z,51.23
2015-10-27T02:03:00.175Z,51.32
2015-10-27T02:03:12.519Z,51.32
2015-10-27T02:03:24.863Z,51.32
2015-10-27T02:03:37.222Z,51.42
2015-10-27T02:03:49.569Z,51.61
2015-10-27T02:04:01.897Z,51.42
2015-10-27T02:04:14.225Z,51.42
2015-10-27T02:04:26.569Z,51.61
2015-10-27T02:04:38.897Z,51.51
2015-10-27T02:04:51.227Z,51.51
2015-10-27T02:05:02.852Z,51.8
2015-10-27T02:05:15.196Z,51.61
2015-10-27T02:05:27.571Z,51.32
2015-10-27T02:05:39.930Z,51.51
2015-10-27T02:05:52.261Z,51.61
2015-10-27T02:06:04.590Z,51.42
2015-10-27T02:06:16.902Z,51.42
2015-10-27T02:06:29.246Z,51.42
2015-10-27T02:06:41.577Z,51.61
2015-10-27T02:06:53.905Z,51.42
2015-10-27T02:07:06.249Z,51.61
2015-10-27T02:07:18.593Z,51.61
2015-10-27T02:07:30.952Z,51.61
2015-10-27T02:07:43.314Z,51.32
2015-10-27T02:07:55.658Z,51.51
2015-10-27T02:08:08.252Z,51.42
2015-10-27T02:08:20.580Z,51.61
2015-10-27T02:08:32.908Z,51.51
2015-10-27T02:08:45.238Z,51.51
2015-10-27T02:08:57.566Z,51.61
2015-10-27T02:09:09.910Z,51.61
2015-10-27T02:09:22.269Z,51.51
2015-10-27T02:09:34.629Z,51.32
2015-10-27T02:09:47.007Z,51.61
2015-10-27T02:09:59.335Z,51.42
2015-10-27T02:10:11.663Z,51.32
2015-10-27T02:10:23.991Z,51.42
2015-10-27T02:10:36.319Z,51.89
2015-10-27T02:10:48.650Z,51.7
2015-10-27T02:11:00.963Z,51.61
2015-10-27T02:11:13.307Z,51.51
2015-10-27T02:11:25.650Z,51.23
2015-10-27T02:11:37.307Z,51.51
2015-10-27T02:11:49.637Z,51.61
2015-10-27T02:12:00.543Z,51.51
2015-10-27T02:12:12.871Z,51.61
2015-10-27T02:12:25.215Z,51.51
2015-10-27T02:12:37.543Z,51.61
2015-10-27T02:12:49.874Z,51.51
2015-10-27T02:13:02.234Z,51.23
2015-10-27T02:13:14.593Z,51.23
2015-10-27T02:13:26.937Z,51.32
2015-10-27T02:13:39.280Z,51.32
2015-10-27T02:13:51.595Z,51.32
2015-10-27T02:14:03.923Z,51.32
2015-10-27T02:14:16.251Z,51.42
2015-10-27T02:14:28.595Z,51.42
2015-10-27T02:14:40.923Z,51.32
2015-10-27T02:14:53.270Z,51.42
2015-10-27T02:15:05.598Z,51.42
2015-10-27T02:15:17.957Z,51.42
2015-10-27T02:15:30.301Z,51.51
2015-10-27T02:15:42.632Z,51.32
2015-10-27T02:15:54.960Z,51.42
2015-10-27T02:16:07.288Z,51.23
2015-10-27T02:16:19.632Z,51.42
2015-10-27T02:16:31.976Z,51.61
2015-10-27T02:16:44.323Z,51.51
2015-10-27T02:16:56.682Z,51.61
2015-10-27T02:17:09.010Z,51.7
2015-10-27T02:17:21.338Z,51.51
2015-10-27T02:17:33.666Z,51.61
2015-10-27T02:17:45.981Z,51.51
2015-10-27T02:17:58.325Z,51.7
2015-10-27T02:18:10.684Z,51.89
2015-10-27T02:18:23.012Z,51.8
2015-10-27T02:18:35.372Z,51.8
2015-10-27T02:18:47.703Z,51.61
2015-10-27T02:19:00.031Z,51.7
2015-10-27T02:19:12.359Z,51.8
2015-10-27T02:19:24.687Z,51.8
2015-10-27T02:19:37.015Z,51.61
2015-10-27T02:19:49.346Z,52.08
2015-10-27T02:20:01.674Z,52.08
2015-10-27T02:20:14.018Z,52.27
2015-10-27T02:20:26.362Z,52.08
2015-10-27T02:20:38.706Z,51.99
2015-10-27T02:20:51.052Z,52.18
2015-10-27T02:21:03.365Z,52.27
2015-10-27T02:21:15.693Z,52.18
2015-10-27T02:21:28.021Z,52.18
2015-10-27T02:21:40.365Z,52.18
2015-10-27T02:21:52.695Z,52.46
2015-10-27T02:22:05.039Z,52.08
2015-10-27T02:22:17.383Z,52.27
2015-10-27T02:22:29.742Z,52.37
2015-10-27T02:22:42.103Z,52.27
2015-10-27T02:22:54.447Z,52.37
2015-10-27T02:23:06.775Z,52.08
2015-10-27T02:23:19.103Z,52.27
2015-10-27T02:23:31.431Z,52.18
2015-10-27T02:23:43.778Z,52.08
2015-10-27T02:23:56.122Z,51.99
2015-10-27T02:24:08.450Z,51.99
2015-10-27T02:24:20.075Z,52.37
2015-10-27T02:24:32.434Z,51.89
2015-10-27T02:24:44.797Z,51.7
2015-10-27T02:24:57.141Z,52.08
2015-10-27T02:25:09.469Z,51.8
2015-10-27T02:25:21.797Z,51.61
2015-10-27T02:25:34.125Z,51.42
2015-10-27T02:25:46.455Z,51.51
2015-10-27T02:25:58.783Z,51.23
2015-10-27T02:26:11.111Z,51.42
2015-10-27T02:26:23.455Z,51.32
2015-10-27T02:26:35.814Z,50.85
2015-10-27T02:26:48.161Z,50.95
2015-10-27T02:27:00.489Z,50.66
2015-10-27T02:27:12.817Z,50.95
2015-10-27T02:27:24.458Z,50.47
2015-10-27T02:27:36.771Z,50.47
2015-10-27T02:27:49.102Z,50.57
2015-10-27T02:28:01.445Z,50.19
2015-10-27T02:28:13.789Z,50.19
2015-10-27T02:28:26.149Z,50.19
2015-10-27T02:28:38.524Z,50.19
2015-10-27T02:28:50.855Z,49.43
2015-10-27T02:29:03.198Z,49.71
2015-10-27T02:29:15.527Z,49.71
2015-10-27T02:29:27.870Z,49.81
2015-10-27T02:29:40.198Z,49.81
2015-10-27T02:29:52.513Z,49.81
2015-10-27T02:30:04.732Z,49.71
2015-10-27T02:30:17.091Z,49.9
2015-10-27T02:30:29.450Z,49.33
2015-10-27T02:30:41.794Z,49.33
2015-10-27T02:30:54.125Z,49.15
2015-10-27T02:31:06.453Z,49.15
2015-10-27T02:31:18.782Z,48.86
2015-10-27T02:31:31.110Z,48.96
2015-10-27T02:31:43.441Z,48.77
2015-10-27T02:31:55.785Z,49.24
2015-10-27T02:32:08.113Z,49.05
2015-10-27T02:32:20.472Z,48.86
2015-10-27T02:32:32.831Z,48.86
2015-10-27T02:32:45.194Z,48.58
2015-10-27T02:32:57.522Z,48.68
2015-10-27T02:33:09.850Z,48.77
2015-10-27T02:33:22.178Z,48.68
2015-10-27T02:33:34.772Z,48.49
2015-10-27T02:33:47.071Z,48.1
2015-10-27T02:33:59.399Z,48.1
2015-10-27T02:34:11.571Z,48.1
2015-10-27T02:34:23.899Z,48.2
2015-10-27T02:34:36.258Z,48.2
2015-10-27T02:34:48.621Z,48.29
2015-10-27T02:35:00.949Z,48.1
2015-10-27T02:35:13.277Z,47.82
2015-10-27T02:35:25.605Z,47.53
2015-10-27T02:35:37.949Z,47.63
2015-10-27T02:35:50.280Z,47.82
2015-10-27T02:36:02.608Z,47.63
2015-10-27T02:36:14.936Z,47.25
2015-10-27T02:36:27.280Z,47.53
2015-10-27T02:36:39.655Z,47.34
2015-10-27T02:36:51.986Z,47.34
2015-10-27T02:37:04.330Z,47.16
2015-10-27T02:37:16.658Z,46.59
2015-10-27T02:37:28.986Z,47.25
2015-10-27T02:37:41.314Z,47.25
2015-10-27T02:37:53.644Z,46.88
2015-10-27T02:38:05.972Z,46.69
2015-10-27T02:38:18.160Z,47.16
2015-10-27T02:38:30.519Z,47.16
2015-10-27T02:38:42.881Z,46.69
2015-10-27T02:38:55.240Z,47.06
2015-10-27T02:39:07.615Z,46.69